createdAt,value
2023-05-25T00:00:30.232Z,20.80
2023-05-25T00:02:57.166Z,20.70
2023-05-25T00:05:27.435Z,20.80
2023-05-25T00:07:55.278Z,20.80
2023-05-25T00:10:21.996Z,20.70
2023-05-25T00:12:48.802Z,20.70
2023-05-25T00:15:15.515Z,20.70
2023-05-25T00:17:42.223Z,20.70
2023-05-25T00:20:09.291Z,20.80
2023-05-25T00:22:36.860Z,20.80
2023-05-25T00:25:06.880Z,20.70
2023-05-25T00:27:33.595Z,20.70
2023-05-25T00:30:00.354Z,20.70
2023-05-25T00:32:27.099Z,20.70
2023-05-25T00:34:54.723Z,20.70
2023-05-25T00:37:21.685Z,20.70
2023-05-25T00:39:48.430Z,20.80
2023-05-25T00:42:16.323Z,20.80
2023-05-25T00:44:43.201Z,20.70
2023-05-25T00:47:11.632Z,20.70
2023-05-25T00:49:38.393Z,20.70
2023-05-25T00:52:05.543Z,20.70
2023-05-25T00:54:33.437Z,20.70
2023-05-25T00:57:06.263Z,20.70
2023-05-25T00:59:44.412Z,20.70
2023-05-25T01:02:13.807Z,20.70
2023-05-25T01:04:45.674Z,20.70
2023-05-25T01:07:17.709Z,20.70
2023-05-25T01:09:45.899Z,20.70
2023-05-25T01:12:14.953Z,20.80
2023-05-25T01:14:42.321Z,20.80
2023-05-25T01:17:10.568Z,20.70
2023-05-25T01:19:40.814Z,20.70
2023-05-25T01:22:27.783Z,20.70
2023-05-25T01:25:02.180Z,20.70
2023-05-25T01:27:48.604Z,20.80
2023-05-25T01:30:16.895Z,20.80
2023-05-25T01:32:45.229Z,20.80
2023-05-25T01:35:13.317Z,20.80
2023-05-25T01:37:45.885Z,20.80
2023-05-25T01:40:14.389Z,20.80
2023-05-25T01:42:41.440Z,20.80
2023-05-25T01:45:09.715Z,20.80
2023-05-25T01:47:58.886Z,20.80
2023-05-25T01:50:36.920Z,20.80
2023-05-25T01:53:06.259Z,20.80
2023-05-25T01:55:39.106Z,20.90
2023-05-25T01:58:08.238Z,20.90
2023-05-25T02:00:36.206Z,20.80
2023-05-25T02:03:04.342Z,20.90
2023-05-25T02:05:31.351Z,20.90
2023-05-25T02:07:58.026Z,20.90
2023-05-25T02:10:24.756Z,20.80
2023-05-25T02:12:51.404Z,20.90
2023-05-25T02:15:18.319Z,20.90
2023-05-25T02:17:45.063Z,20.90
2023-05-25T02:20:12.355Z,20.80
2023-05-25T02:22:39.007Z,20.90
2023-05-25T02:25:06.093Z,20.80
2023-05-25T02:27:33.076Z,20.80
2023-05-25T02:29:59.763Z,20.90
2023-05-25T02:32:26.460Z,20.90
2023-05-25T02:34:53.188Z,20.80
2023-05-25T02:37:19.854Z,20.80
2023-05-25T02:39:46.554Z,20.80
2023-05-25T02:42:13.254Z,20.80
2023-05-25T02:44:39.928Z,20.80
2023-05-25T02:47:07.532Z,20.80
2023-05-25T02:49:34.360Z,20.90
2023-05-25T02:52:01.009Z,20.80
2023-05-25T02:54:27.669Z,20.80
2023-05-25T02:56:54.313Z,20.80
2023-05-25T02:59:21.473Z,20.80
2023-05-25T03:01:48.164Z,20.70
2023-05-25T03:04:14.859Z,20.70
2023-05-25T03:06:41.515Z,20.70
2023-05-25T03:09:09.430Z,20.70
2023-05-25T03:11:36.141Z,20.70
2023-05-25T03:14:02.860Z,20.70
2023-05-25T03:16:29.565Z,22.70
2023-05-25T03:18:56.228Z,20.70
2023-05-25T03:21:23.686Z,20.70
2023-05-25T03:23:50.467Z,20.70
2023-05-25T03:26:17.536Z,20.70
2023-05-25T03:28:44.335Z,20.70
2023-05-25T03:31:12.179Z,20.70
2023-05-25T03:33:39.140Z,20.70
2023-05-25T03:36:09.512Z,20.70
2023-05-25T03:38:39.537Z,20.70
2023-05-25T03:41:06.211Z,20.70
2023-05-25T03:43:32.913Z,20.70
2023-05-25T03:45:59.596Z,20.70
2023-05-25T03:48:26.428Z,20.60
2023-05-25T03:50:53.937Z,20.70
2023-05-25T03:53:20.593Z,20.60
2023-05-25T03:55:47.469Z,20.70
2023-05-25T03:58:15.967Z,20.60
2023-05-25T04:00:42.628Z,20.60
2023-05-25T04:03:10.829Z,20.60
2023-05-25T04:05:38.502Z,20.60
2023-05-25T04:08:05.249Z,20.60
2023-05-25T04:10:31.880Z,20.60
2023-05-25T04:12:59.789Z,20.60
2023-05-25T04:15:26.650Z,20.70
2023-05-25T04:17:53.345Z,20.60
2023-05-25T04:20:20.281Z,20.50
2023-05-25T04:22:47.498Z,20.60
2023-05-25T04:25:14.348Z,20.50
2023-05-25T04:27:42.179Z,20.60
2023-05-25T04:30:10.987Z,20.60
2023-05-25T04:32:38.483Z,20.60
2023-05-25T04:35:05.583Z,20.60
2023-05-25T04:37:33.495Z,20.60
2023-05-25T04:40:01.527Z,20.60
2023-05-25T04:42:28.838Z,20.60
2023-05-25T04:44:55.658Z,20.50
2023-05-25T04:47:24.787Z,20.60
2023-05-25T04:49:51.876Z,20.60
2023-05-25T04:52:18.521Z,20.60
2023-05-25T04:54:46.714Z,20.60
2023-05-25T04:57:13.378Z,20.50
2023-05-25T04:59:40.052Z,20.60
2023-05-25T05:02:06.738Z,20.60
2023-05-25T05:04:33.432Z,20.60
2023-05-25T05:07:00.154Z,20.60
2023-05-25T05:09:26.849Z,20.60
2023-05-25T05:11:53.515Z,20.60
2023-05-25T05:14:20.426Z,20.60
2023-05-25T05:16:48.055Z,20.70
2023-05-25T05:19:14.829Z,20.60
2023-05-25T05:21:41.494Z,20.60
2023-05-25T05:24:08.187Z,20.60
2023-05-25T05:26:51.965Z,20.70
2023-05-25T05:29:21.560Z,20.60
2023-05-25T05:31:48.326Z,20.70
2023-05-25T05:34:15.038Z,20.70
2023-05-25T05:36:55.828Z,20.70
2023-05-25T05:39:23.141Z,20.70
2023-05-25T05:41:49.871Z,20.60
2023-05-25T05:44:16.777Z,20.60
2023-05-25T05:46:43.729Z,20.60
2023-05-25T05:49:10.672Z,20.60
2023-05-25T05:51:37.297Z,20.70
2023-05-25T05:54:04.577Z,20.60
2023-05-25T05:56:31.320Z,20.60
2023-05-25T05:58:57.995Z,20.60
2023-05-25T06:01:25.382Z,20.70
2023-05-25T06:03:55.909Z,20.70
2023-05-25T06:06:22.626Z,20.70
2023-05-25T06:08:49.333Z,20.70
2023-05-25T06:11:16.066Z,20.70
2023-05-25T06:13:43.450Z,20.70
2023-05-25T06:16:12.276Z,20.60
2023-05-25T06:18:39.164Z,20.70
2023-05-25T06:21:06.370Z,20.60
2023-05-25T06:23:33.028Z,20.70
2023-05-25T06:26:04.387Z,20.70
2023-05-25T06:28:31.183Z,20.60
2023-05-25T06:30:58.254Z,20.70
2023-05-25T06:33:25.020Z,20.70
2023-05-25T06:35:52.616Z,20.70
2023-05-25T06:38:19.259Z,20.70
2023-05-25T06:40:45.923Z,20.60
2023-05-25T06:43:12.641Z,20.70
2023-05-25T06:45:39.298Z,20.70
2023-05-25T06:48:06.141Z,20.70
2023-05-25T06:50:32.786Z,20.70
2023-05-25T06:53:00.497Z,20.60
2023-05-25T06:55:27.342Z,20.60
2023-05-25T06:57:54.004Z,20.60
2023-05-25T07:00:21.473Z,20.60
2023-05-25T07:02:48.293Z,20.70
2023-05-25T07:05:15.137Z,20.70
2023-05-25T07:07:41.873Z,20.60
2023-05-25T07:10:09.346Z,20.60
2023-05-25T07:12:35.977Z,20.70
2023-05-25T07:15:02.665Z,20.70
2023-05-25T07:17:29.353Z,20.70
2023-05-25T07:19:56.061Z,20.70
2023-05-25T07:22:23.608Z,20.70
2023-05-25T07:24:50.336Z,20.70
2023-05-25T07:27:17.305Z,20.60
2023-05-25T07:29:44.286Z,20.70
2023-05-25T07:32:11.115Z,20.70
2023-05-25T07:34:37.795Z,20.70
2023-05-25T07:37:04.528Z,20.70
2023-05-25T07:39:31.163Z,20.70
2023-05-25T07:41:57.842Z,20.70
2023-05-25T07:44:24.526Z,20.70
2023-05-25T07:46:51.250Z,20.70
2023-05-25T07:49:17.993Z,20.70
2023-05-25T07:51:45.598Z,20.70
2023-05-25T07:54:12.485Z,20.70
2023-05-25T07:56:39.181Z,20.70
2023-05-25T07:59:06.296Z,20.70
2023-05-25T08:01:33.032Z,20.70
2023-05-25T08:04:00.151Z,20.70
2023-05-25T08:06:27.086Z,20.70
2023-05-25T08:08:53.823Z,20.70
2023-05-25T08:11:24.637Z,20.70
2023-05-25T08:13:51.341Z,20.70
2023-05-25T08:16:19.071Z,20.70
2023-05-25T08:18:46.912Z,20.70
2023-05-25T08:21:14.068Z,20.70
2023-05-25T08:23:42.545Z,20.70
2023-05-25T08:26:31.049Z,20.70
2023-05-25T08:28:57.926Z,20.70
2023-05-25T08:31:24.609Z,20.70
2023-05-25T08:33:51.263Z,20.70
2023-05-25T08:36:17.928Z,20.70
2023-05-25T08:38:44.661Z,20.70
2023-05-25T08:41:13.158Z,20.70
2023-05-25T08:43:41.986Z,20.70
2023-05-25T08:46:09.729Z,20.70
2023-05-25T08:48:41.648Z,20.70
2023-05-25T08:51:11.798Z,20.80
2023-05-25T08:53:40.554Z,20.70
2023-05-25T08:56:27.499Z,20.70
2023-05-25T08:59:04.802Z,20.70
2023-05-25T09:01:39.346Z,20.70
2023-05-25T09:04:06.680Z,20.80
2023-05-25T09:06:36.667Z,20.80
2023-05-25T09:09:06.709Z,20.80
2023-05-25T09:11:38.862Z,20.80
2023-05-25T09:14:08.669Z,20.80
2023-05-25T09:16:38.282Z,20.80
2023-05-25T09:19:05.021Z,20.80
2023-05-25T09:21:31.725Z,20.80
2023-05-25T09:24:00.272Z,20.80
2023-05-25T09:26:27.495Z,20.80
2023-05-25T09:28:54.311Z,20.80
2023-05-25T09:31:23.742Z,20.80
2023-05-25T09:33:51.458Z,20.80
2023-05-25T09:36:21.001Z,20.80
2023-05-25T09:38:48.059Z,20.80
2023-05-25T09:41:14.932Z,20.80
2023-05-25T09:43:46.953Z,20.80
2023-05-25T09:46:21.520Z,20.80
2023-05-25T09:48:49.093Z,20.80
2023-05-25T09:51:15.763Z,20.80
2023-05-25T09:53:42.958Z,20.80
2023-05-25T09:56:11.765Z,20.80
2023-05-25T09:58:38.564Z,20.80
2023-05-25T10:01:05.573Z,20.80
2023-05-25T10:03:33.146Z,20.80
2023-05-25T10:06:00.989Z,20.90
2023-05-25T10:08:29.201Z,20.80
2023-05-25T10:10:56.016Z,20.80
2023-05-25T10:13:23.183Z,20.90
2023-05-25T10:15:54.271Z,20.90
2023-05-25T10:18:26.114Z,20.80
2023-05-25T10:20:57.514Z,20.90
2023-05-25T10:23:26.926Z,20.90
2023-05-25T10:25:57.973Z,20.90
2023-05-25T10:28:29.408Z,20.80
2023-05-25T10:30:57.978Z,20.90
2023-05-25T10:33:25.016Z,20.90
2023-05-25T10:36:02.984Z,20.90
2023-05-25T10:38:39.209Z,20.90
2023-05-25T10:41:06.086Z,20.90
2023-05-25T10:43:33.292Z,20.90
2023-05-25T10:46:00.151Z,20.90
2023-05-25T10:48:37.303Z,20.90
2023-05-25T10:51:04.599Z,20.90
2023-05-25T10:53:31.364Z,20.90
2023-05-25T10:56:06.554Z,20.90
2023-05-25T10:58:34.040Z,20.90
2023-05-25T11:01:13.212Z,20.90
2023-05-25T11:04:18.301Z,20.90
2023-05-25T11:06:47.969Z,20.90
2023-05-25T11:09:25.976Z,20.90
2023-05-25T11:11:55.257Z,20.90
2023-05-25T11:14:28.201Z,20.90
2023-05-25T11:17:19.779Z,20.90
2023-05-25T11:19:51.998Z,20.90
2023-05-25T11:22:36.224Z,20.90
2023-05-25T11:25:23.514Z,20.90
2023-05-25T11:27:54.146Z,20.90
2023-05-25T11:30:27.388Z,20.90
2023-05-25T11:32:55.002Z,21.00
2023-05-25T11:35:21.878Z,20.90
2023-05-25T11:37:53.880Z,20.90
2023-05-25T11:40:23.781Z,20.90
2023-05-25T11:42:52.738Z,20.90
2023-05-25T11:45:22.387Z,20.90
2023-05-25T11:47:49.044Z,20.90
2023-05-25T11:50:17.138Z,21.00
2023-05-25T11:52:43.886Z,21.00
2023-05-25T11:55:14.414Z,21.00
2023-05-25T11:57:41.407Z,21.00
2023-05-25T12:00:11.292Z,21.00
2023-05-25T12:02:39.696Z,21.00
2023-05-25T12:05:11.611Z,21.00
2023-05-25T12:07:44.484Z,21.00
2023-05-25T12:10:13.744Z,21.10
2023-05-25T12:12:51.350Z,21.00
2023-05-25T12:15:25.620Z,21.10
2023-05-25T12:17:53.844Z,21.10
2023-05-25T12:20:21.419Z,21.10
2023-05-25T12:22:49.701Z,21.10
2023-05-25T12:25:19.757Z,21.10
2023-05-25T12:27:46.434Z,21.10
2023-05-25T12:30:13.301Z,21.10
2023-05-25T12:32:54.470Z,21.10
2023-05-25T12:35:21.404Z,21.10
2023-05-25T12:37:48.152Z,21.10
2023-05-25T12:40:21.158Z,21.10
2023-05-25T12:42:57.070Z,21.10
2023-05-25T12:45:24.348Z,21.00
2023-05-25T12:47:51.167Z,21.10
2023-05-25T12:50:19.296Z,21.10
2023-05-25T12:52:46.837Z,21.10
2023-05-25T12:55:27.133Z,21.10
2023-05-25T12:57:58.220Z,21.10
2023-05-25T13:00:28.210Z,21.10
2023-05-25T13:02:55.449Z,21.10
2023-05-25T13:05:23.946Z,21.10
2023-05-25T13:07:51.498Z,21.10
2023-05-25T13:10:18.543Z,21.10
2023-05-25T13:12:46.736Z,21.10
2023-05-25T13:15:14.853Z,21.10
2023-05-25T13:17:45.115Z,21.10
2023-05-25T13:20:15.452Z,21.20
2023-05-25T13:22:44.771Z,21.20
2023-05-25T13:25:15.255Z,21.20
2023-05-25T13:27:48.134Z,21.20
2023-05-25T13:30:16.011Z,21.20
2023-05-25T13:32:43.533Z,21.20
2023-05-25T13:35:19.378Z,21.20
2023-05-25T13:37:46.673Z,21.20
2023-05-25T13:40:13.751Z,21.20
2023-05-25T13:42:40.970Z,21.20
2023-05-25T13:45:08.264Z,21.20
2023-05-25T13:47:34.964Z,21.30
2023-05-25T13:50:01.722Z,21.30
2023-05-25T13:52:28.570Z,21.30
2023-05-25T13:54:55.249Z,21.30
2023-05-25T13:57:22.420Z,21.30
2023-05-25T13:59:49.122Z,21.30
2023-05-25T14:02:15.982Z,21.30
2023-05-25T14:04:42.713Z,21.30
2023-05-25T14:07:09.444Z,21.30
2023-05-25T14:09:36.493Z,21.30
2023-05-25T14:12:03.369Z,21.30
2023-05-25T14:14:32.664Z,21.30
2023-05-25T14:17:00.965Z,21.40
2023-05-25T14:19:33.925Z,21.30
2023-05-25T14:22:12.479Z,21.40
2023-05-25T14:24:41.237Z,21.30
2023-05-25T14:27:08.025Z,21.30
2023-05-25T14:29:34.882Z,21.30
2023-05-25T14:32:01.840Z,21.30
2023-05-25T14:34:29.673Z,21.40
2023-05-25T14:36:56.414Z,21.40
2023-05-25T14:39:23.073Z,21.40
2023-05-25T14:41:49.770Z,21.40
2023-05-25T14:44:16.617Z,21.40
2023-05-25T14:46:43.499Z,21.40
2023-05-25T14:49:10.418Z,21.40
2023-05-25T14:51:37.717Z,21.40
2023-05-25T14:54:06.126Z,21.40
2023-05-25T14:56:32.901Z,21.50
2023-05-25T14:58:59.556Z,21.40
2023-05-25T15:01:26.326Z,21.40
2023-05-25T15:03:53.213Z,21.50
2023-05-25T15:06:19.951Z,21.50
2023-05-25T15:08:46.889Z,21.50
2023-05-25T15:11:13.588Z,21.50
2023-05-25T15:13:40.997Z,21.50
2023-05-25T15:16:11.774Z,21.50
2023-05-25T15:18:38.540Z,21.50
2023-05-25T15:21:06.112Z,21.50
2023-05-25T15:23:32.836Z,21.40
2023-05-25T15:26:03.999Z,21.50
2023-05-25T15:28:31.418Z,21.40
2023-05-25T15:30:59.944Z,21.40
2023-05-25T15:33:39.932Z,21.40
2023-05-25T15:36:15.515Z,21.40
2023-05-25T15:38:48.726Z,21.40
2023-05-25T15:41:18.760Z,21.40
2023-05-25T15:43:52.577Z,21.40
2023-05-25T15:46:19.498Z,21.40
2023-05-25T15:48:49.284Z,21.40
2023-05-25T15:51:16.049Z,21.40
2023-05-25T15:53:42.694Z,21.40
2023-05-25T15:56:09.329Z,21.30
2023-05-25T15:58:35.972Z,21.40
2023-05-25T16:01:02.715Z,21.30
2023-05-25T16:03:29.486Z,21.30
2023-05-25T16:05:56.733Z,21.30
2023-05-25T16:08:23.719Z,21.30
2023-05-25T16:10:50.514Z,21.30
2023-05-25T16:13:17.173Z,21.20
2023-05-25T16:15:44.007Z,21.20
2023-05-25T16:18:11.090Z,21.20
2023-05-25T16:20:37.827Z,21.20
2023-05-25T16:23:04.493Z,21.20
2023-05-25T16:25:31.176Z,21.20
2023-05-25T16:27:57.867Z,21.20
2023-05-25T16:30:24.516Z,21.20
2023-05-25T16:32:51.264Z,21.20
2023-05-25T16:35:17.977Z,21.20
2023-05-25T16:37:45.506Z,21.20
2023-05-25T16:40:12.220Z,21.20
2023-05-25T16:42:38.925Z,21.10
2023-05-25T16:45:06.230Z,21.10
2023-05-25T16:47:32.883Z,21.10
2023-05-25T16:49:59.581Z,21.10
2023-05-25T16:52:26.257Z,21.10
2023-05-25T16:54:52.929Z,21.10
2023-05-25T16:57:19.598Z,21.10
2023-05-25T16:59:46.286Z,21.10
2023-05-25T17:02:12.911Z,21.10
2023-05-25T17:04:39.542Z,21.10
2023-05-25T17:07:06.261Z,21.10
2023-05-25T17:09:32.913Z,21.10
2023-05-25T17:12:01.502Z,21.10
2023-05-25T17:14:28.276Z,21.20
2023-05-25T17:16:55.147Z,21.20
2023-05-25T17:19:21.823Z,21.10
2023-05-25T17:21:48.541Z,21.10
2023-05-25T17:24:15.337Z,21.10
2023-05-25T17:26:41.996Z,21.10
2023-05-25T17:29:08.657Z,21.10
2023-05-25T17:31:35.411Z,21.10
2023-05-25T17:34:02.150Z,21.10
2023-05-25T17:36:28.822Z,21.10
2023-05-25T17:39:00.144Z,21.10
2023-05-25T17:41:27.553Z,21.10
2023-05-25T17:43:54.227Z,21.10
2023-05-25T17:46:21.488Z,21.20
2023-05-25T17:48:48.152Z,21.20
2023-05-25T17:51:14.970Z,21.10
2023-05-25T17:53:41.669Z,21.10
2023-05-25T17:56:08.693Z,21.10
2023-05-25T17:58:36.039Z,21.10
2023-05-25T18:01:02.992Z,21.10
2023-05-25T18:03:29.962Z,21.20
2023-05-25T18:05:56.818Z,21.10
2023-05-25T18:08:23.477Z,21.10
2023-05-25T18:10:50.545Z,21.10
2023-05-25T18:13:17.222Z,21.10
2023-05-25T18:15:44.181Z,21.10
2023-05-25T18:18:11.104Z,21.10
2023-05-25T18:20:37.833Z,21.10
2023-05-25T18:23:06.537Z,21.10
2023-05-25T18:25:33.423Z,21.10
2023-05-25T18:28:00.263Z,21.10
2023-05-25T18:30:26.901Z,21.10
2023-05-25T18:32:53.568Z,21.10
2023-05-25T18:35:20.301Z,21.10
2023-05-25T18:37:46.921Z,21.10
2023-05-25T18:40:13.842Z,21.00
2023-05-25T18:42:40.571Z,21.10
2023-05-25T18:45:07.571Z,21.10
2023-05-25T18:47:34.364Z,21.10
2023-05-25T18:50:01.687Z,21.10
2023-05-25T18:52:28.511Z,21.10
2023-05-25T18:54:55.211Z,21.10
2023-05-25T18:57:21.872Z,21.10
2023-05-25T18:59:48.531Z,21.00
2023-05-25T19:02:15.516Z,21.00
2023-05-25T19:04:42.430Z,21.10
2023-05-25T19:07:09.076Z,21.10
2023-05-25T19:09:35.744Z,21.00
2023-05-25T19:12:04.514Z,21.00
2023-05-25T19:14:31.755Z,21.00
2023-05-25T19:16:58.621Z,21.00
2023-05-25T19:19:25.518Z,21.00
2023-05-25T19:21:53.702Z,21.00
2023-05-25T19:24:20.409Z,21.00
2023-05-25T19:26:49.601Z,21.00
2023-05-25T19:29:16.607Z,21.00
2023-05-25T19:31:43.392Z,21.00
2023-05-25T19:34:10.046Z,21.00
2023-05-25T19:36:36.753Z,21.00
2023-05-25T19:39:04.763Z,21.00
2023-05-25T19:41:31.471Z,21.00
2023-05-25T19:43:58.175Z,20.90
2023-05-25T19:46:24.882Z,21.00
2023-05-25T19:48:51.769Z,21.00
2023-05-25T19:51:18.445Z,20.90
2023-05-25T19:53:46.459Z,20.90
2023-05-25T19:56:13.093Z,20.90
2023-05-25T19:58:39.805Z,21.00
2023-05-25T20:01:06.496Z,20.90
2023-05-25T20:03:33.325Z,20.90
2023-05-25T20:06:00.160Z,20.90
2023-05-25T20:08:27.268Z,20.90
2023-05-25T20:10:54.097Z,20.90
2023-05-25T20:13:20.791Z,20.90
2023-05-25T20:15:48.325Z,20.90
2023-05-25T20:18:15.272Z,20.90
2023-05-25T20:20:41.967Z,20.90
2023-05-25T20:23:09.611Z,20.90
2023-05-25T20:25:36.305Z,20.90
2023-05-25T20:28:03.032Z,20.90
2023-05-25T20:30:29.736Z,20.90
2023-05-25T20:32:56.430Z,20.90
2023-05-25T20:35:23.208Z,20.90
2023-05-25T20:37:49.876Z,20.90
2023-05-25T20:40:16.581Z,20.90
2023-05-25T20:42:43.292Z,20.90
2023-05-25T20:45:10.170Z,20.90
2023-05-25T20:47:38.922Z,20.90
2023-05-25T20:50:06.362Z,20.90
2023-05-25T20:52:33.673Z,20.90
2023-05-25T20:55:00.533Z,20.90
2023-05-25T20:57:27.213Z,20.90
2023-05-25T20:59:54.183Z,20.90
2023-05-25T21:02:20.915Z,20.90
2023-05-25T21:04:47.555Z,20.90
2023-05-25T21:07:14.349Z,20.90
2023-05-25T21:09:41.259Z,20.90
2023-05-25T21:12:07.999Z,20.80
2023-05-25T21:14:34.631Z,20.80
2023-05-25T21:17:01.434Z,20.80
2023-05-25T21:19:28.085Z,20.90
2023-05-25T21:21:54.763Z,20.80
2023-05-25T21:24:21.410Z,20.80
2023-05-25T21:26:48.021Z,20.80
2023-05-25T21:29:14.653Z,20.80
2023-05-25T21:31:41.358Z,20.80
2023-05-25T21:34:08.028Z,20.80
2023-05-25T21:36:34.729Z,20.80
2023-05-25T21:39:01.362Z,20.80
2023-05-25T21:41:28.518Z,20.80
2023-05-25T21:43:55.346Z,20.80
2023-05-25T21:46:22.023Z,20.80
2023-05-25T21:48:48.703Z,20.80
2023-05-25T21:51:15.535Z,20.80
2023-05-25T21:53:42.271Z,20.80
2023-05-25T21:56:09.054Z,20.80
2023-05-25T21:58:35.749Z,20.80
2023-05-25T22:01:03.141Z,20.80
2023-05-25T22:03:29.908Z,20.80
2023-05-25T22:05:56.561Z,20.80
2023-05-25T22:08:23.317Z,20.90
2023-05-25T22:10:50.051Z,20.90
2023-05-25T22:13:16.754Z,20.90
2023-05-25T22:15:44.394Z,20.80
2023-05-25T22:18:11.287Z,20.80
2023-05-25T22:20:38.870Z,20.90
2023-05-25T22:23:06.129Z,20.90
2023-05-25T22:25:32.801Z,20.90
2023-05-25T22:27:59.538Z,20.90
2023-05-25T22:30:26.203Z,20.90
2023-05-25T22:32:52.899Z,20.90
2023-05-25T22:35:19.683Z,21.00
2023-05-25T22:37:46.376Z,20.90
2023-05-25T22:40:13.310Z,20.90
2023-05-25T22:42:40.230Z,20.90
2023-05-25T22:45:07.400Z,20.90
2023-05-25T22:47:34.065Z,20.80
2023-05-25T22:50:00.796Z,20.90
2023-05-25T22:52:27.423Z,20.80
2023-05-25T22:54:54.040Z,20.80
2023-05-25T22:57:20.732Z,20.80
2023-05-25T22:59:47.423Z,20.90
2023-05-25T23:02:14.159Z,20.80
2023-05-25T23:04:40.940Z,20.80
2023-05-25T23:07:07.580Z,20.80
2023-05-25T23:09:34.223Z,20.80
2023-05-25T23:12:01.653Z,20.80
2023-05-25T23:14:30.200Z,20.80
2023-05-25T23:16:56.905Z,20.80
2023-05-25T23:19:25.645Z,20.80
2023-05-25T23:21:52.384Z,20.80
2023-05-25T23:24:19.027Z,20.80
2023-05-25T23:26:46.004Z,20.80
2023-05-25T23:29:12.783Z,20.80
2023-05-25T23:31:39.598Z,20.80
2023-05-25T23:34:06.253Z,20.80
2023-05-25T23:36:33.615Z,20.80
2023-05-25T23:39:00.266Z,21.30
2023-05-25T23:41:27.302Z,20.80
2023-05-25T23:43:53.959Z,20.80
2023-05-25T23:46:20.652Z,20.80
2023-05-25T23:48:47.460Z,20.80
2023-05-25T23:51:14.088Z,20.80
2023-05-25T23:53:40.919Z,20.80
2023-05-25T23:56:08.162Z,20.80
2023-05-25T23:58:34.860Z,20.80
